createdAt,value
2022-11-16T00:00:32.945Z,9.25
2022-11-16T00:03:07.396Z,5.22
2022-11-16T00:05:38.668Z,6.22
2022-11-16T00:08:10.736Z,8.13
2022-11-16T00:10:42.198Z,8.30
2022-11-16T00:13:17.264Z,8.88
2022-11-16T00:15:58.029Z,8.90
2022-11-16T00:18:30.276Z,9.18
2022-11-16T00:21:02.717Z,7.93
2022-11-16T00:23:35.030Z,8.57
2022-11-16T00:26:07.971Z,7.22
2022-11-16T00:28:41.591Z,10.82
2022-11-16T00:31:13.754Z,9.48
2022-11-16T00:33:44.953Z,9.32
2022-11-16T00:36:16.874Z,11.38
2022-11-16T00:38:48.146Z,11.38
2022-11-16T00:41:18.950Z,8.25
2022-11-16T00:43:52.690Z,8.93
2022-11-16T00:46:23.580Z,11.07
2022-11-16T00:48:54.338Z,6.20
2022-11-16T00:51:25.289Z,7.68
2022-11-16T00:53:56.215Z,10.27
2022-11-16T00:56:27.186Z,17.67
2022-11-16T00:59:00.707Z,13.50
2022-11-16T01:01:31.574Z,7.72
2022-11-16T01:04:02.716Z,10.45
2022-11-16T01:06:33.577Z,6.05
2022-11-16T01:09:04.743Z,7.07
2022-11-16T01:11:47.822Z,8.60
2022-11-16T01:14:21.306Z,6.78
2022-11-16T01:16:53.815Z,9.40
2022-11-16T01:19:24.815Z,7.85
2022-11-16T01:21:56.059Z,9.30
2022-11-16T01:24:27.367Z,7.85
2022-11-16T01:26:59.483Z,12.30
2022-11-16T01:29:36.723Z,9.20
2022-11-16T01:32:08.083Z,7.60
2022-11-16T01:34:39.904Z,6.75
2022-11-16T01:37:25.171Z,8.85
2022-11-16T01:39:56.227Z,7.97
2022-11-16T01:42:29.845Z,9.10
2022-11-16T01:45:11.905Z,8.93
2022-11-16T01:47:42.755Z,10.63
2022-11-16T01:50:16.736Z,7.88
2022-11-16T01:52:54.788Z,8.75
2022-11-16T01:55:28.172Z,8.30
2022-11-16T01:58:17.918Z,7.22
2022-11-16T02:00:53.974Z,9.63
2022-11-16T02:03:39.958Z,6.05
2022-11-16T02:06:32.588Z,4.93
2022-11-16T02:09:50.707Z,7.45
2022-11-16T02:12:48.108Z,10.18
2022-11-16T02:15:30.005Z,8.40
2022-11-16T02:18:36.143Z,9.10
2022-11-16T02:21:22.342Z,8.93
2022-11-16T02:24:23.006Z,11.23
2022-11-16T02:27:30.399Z,5.85
2022-11-16T02:30:04.638Z,11.93
2022-11-16T02:32:40.596Z,8.38
2022-11-16T02:35:17.063Z,12.70
2022-11-16T02:37:51.622Z,7.50
2022-11-16T02:40:25.414Z,7.70
2022-11-16T02:43:03.878Z,9.30
2022-11-16T02:45:43.522Z,8.32
2022-11-16T02:48:19.165Z,8.88
2022-11-16T02:50:52.990Z,6.32
2022-11-16T02:53:24.995Z,11.30
2022-11-16T02:55:57.601Z,11.40
2022-11-16T02:58:29.367Z,7.57
2022-11-16T03:01:09.515Z,8.73
2022-11-16T03:03:46.405Z,11.15
2022-11-16T03:06:22.783Z,8.68
2022-11-16T03:08:59.956Z,15.02
2022-11-16T03:11:47.787Z,10.18
2022-11-16T03:14:22.560Z,8.48
2022-11-16T03:16:59.931Z,15.23
2022-11-16T03:19:39.931Z,8.68
2022-11-16T03:22:18.064Z,9.68
2022-11-16T03:24:49.368Z,9.90
2022-11-16T03:27:28.517Z,9.30
2022-11-16T03:30:07.717Z,9.55
2022-11-16T03:32:49.763Z,11.88
2022-11-16T03:35:27.832Z,11.48
2022-11-16T03:38:03.064Z,9.90
2022-11-16T03:40:37.146Z,11.98
2022-11-16T03:43:10.167Z,9.35
2022-11-16T03:45:41.715Z,11.55
2022-11-16T03:48:16.763Z,9.63
2022-11-16T03:50:48.215Z,13.38
2022-11-16T03:53:19.167Z,15.07
2022-11-16T03:55:51.287Z,12.00
2022-11-16T03:58:22.118Z,14.00
2022-11-16T04:00:52.978Z,15.40
2022-11-16T04:03:26.484Z,8.18
2022-11-16T04:06:10.083Z,6.63
2022-11-16T04:09:04.966Z,14.32
2022-11-16T04:11:48.486Z,7.50
2022-11-16T04:14:36.487Z,10.90
2022-11-16T04:17:20.964Z,8.63
2022-11-16T04:20:06.671Z,12.27
2022-11-16T04:22:57.174Z,14.40
2022-11-16T04:25:33.518Z,9.15
2022-11-16T04:28:13.781Z,12.18
2022-11-16T04:31:10.052Z,14.35
2022-11-16T04:33:55.308Z,6.25
2022-11-16T04:36:42.330Z,9.70
2022-11-16T04:39:15.199Z,12.40
2022-11-16T04:41:59.590Z,10.77
2022-11-16T04:44:53.471Z,10.27
2022-11-16T04:47:21.987Z,7.30
2022-11-16T04:49:53.004Z,11.63
2022-11-16T04:52:27.744Z,9.65
2022-11-16T04:54:59.476Z,12.52
2022-11-16T04:57:31.692Z,11.43
2022-11-16T05:00:02.656Z,10.95
2022-11-16T05:02:34.220Z,8.10
2022-11-16T05:05:05.271Z,11.77
2022-11-16T05:07:39.859Z,9.55
2022-11-16T05:10:17.432Z,13.65
2022-11-16T05:12:48.539Z,13.07
2022-11-16T05:15:20.655Z,15.73
2022-11-16T05:17:55.056Z,12.10
2022-11-16T05:20:40.968Z,10.82
2022-11-16T05:23:27.284Z,10.48
2022-11-16T05:26:01.588Z,13.10
2022-11-16T05:28:33.602Z,8.00
2022-11-16T05:31:08.450Z,10.20
2022-11-16T05:33:40.321Z,11.38
2022-11-16T05:36:13.509Z,12.00
2022-11-16T05:38:51.585Z,10.93
2022-11-16T05:41:28.191Z,15.68
2022-11-16T05:43:59.532Z,10.10
2022-11-16T05:46:30.757Z,14.65
2022-11-16T05:49:04.165Z,10.00
2022-11-16T05:51:34.994Z,14.93
2022-11-16T05:54:09.955Z,19.40
2022-11-16T05:56:42.688Z,18.23
2022-11-16T05:59:16.695Z,12.20
2022-11-16T06:01:49.296Z,11.70
2022-11-16T06:04:24.985Z,13.27
2022-11-16T06:06:58.155Z,11.55
2022-11-16T06:09:37.469Z,10.25
2022-11-16T06:12:18.726Z,7.82
2022-11-16T06:14:50.023Z,12.05
2022-11-16T06:17:20.958Z,12.10
2022-11-16T06:19:51.953Z,11.40
2022-11-16T06:22:22.741Z,8.10
2022-11-16T06:24:56.154Z,11.35
2022-11-16T06:27:27.009Z,10.68
2022-11-16T06:29:59.597Z,9.48
2022-11-16T06:32:30.721Z,14.85
2022-11-16T06:35:01.864Z,12.63
2022-11-16T06:37:33.893Z,7.82
2022-11-16T06:40:10.778Z,11.30
2022-11-16T06:42:47.785Z,9.55
2022-11-16T06:45:19.679Z,12.30
2022-11-16T06:47:56.857Z,11.07
2022-11-16T06:50:28.020Z,10.73
2022-11-16T06:53:01.012Z,11.10
2022-11-16T06:55:36.195Z,12.43
2022-11-16T06:58:08.271Z,14.10
2022-11-16T07:00:39.695Z,10.27
2022-11-16T07:03:12.672Z,7.35
2022-11-16T07:05:45.036Z,17.17
2022-11-16T07:08:21.338Z,7.72
2022-11-16T07:10:56.468Z,7.30
2022-11-16T07:13:30.388Z,12.02
2022-11-16T07:16:05.599Z,8.75
2022-11-16T07:18:37.306Z,11.25
2022-11-16T07:21:13.723Z,13.02
2022-11-16T07:26:26.208Z,13.38
2022-11-16T07:29:07.225Z,10.15
2022-11-16T07:31:41.850Z,9.20
2022-11-16T07:34:48.836Z,10.32
2022-11-16T07:37:21.125Z,12.70
2022-11-16T07:39:52.537Z,16.60
2022-11-16T07:42:26.832Z,11.68
2022-11-16T07:45:16.401Z,13.80
2022-11-16T07:47:57.820Z,14.40
2022-11-16T07:50:48.875Z,14.95
2022-11-16T07:53:22.949Z,9.63
2022-11-16T07:56:01.037Z,10.23
2022-11-16T07:58:38.666Z,9.23
2022-11-16T08:01:12.488Z,15.25
2022-11-16T08:03:44.628Z,10.38
2022-11-16T08:06:17.100Z,10.38
2022-11-16T08:08:48.069Z,7.68
2022-11-16T08:11:19.269Z,14.60
2022-11-16T08:13:53.046Z,8.75
2022-11-16T08:16:25.645Z,13.20
2022-11-16T08:19:04.997Z,14.68
2022-11-16T08:21:36.751Z,14.10
2022-11-16T08:24:08.216Z,12.48
2022-11-16T08:26:43.362Z,10.80
2022-11-16T08:29:20.790Z,13.73
2022-11-16T08:31:54.823Z,16.52
2022-11-16T08:34:26.582Z,15.95
2022-11-16T08:37:02.428Z,15.38
2022-11-16T08:39:42.393Z,13.55
2022-11-16T08:42:13.730Z,20.70
2022-11-16T08:44:51.632Z,17.30
2022-11-16T08:47:24.368Z,17.83
2022-11-16T08:49:58.350Z,14.90
2022-11-16T08:52:32.974Z,19.55
2022-11-16T08:55:05.167Z,11.57
2022-11-16T08:57:37.166Z,18.40
2022-11-16T09:00:16.479Z,22.23
2022-11-16T09:02:47.685Z,15.07
2022-11-16T09:05:18.703Z,15.73
2022-11-16T09:07:49.971Z,19.25
2022-11-16T09:10:23.342Z,16.70
2022-11-16T09:12:54.164Z,21.85
2022-11-16T09:15:28.299Z,18.73
2022-11-16T09:17:59.586Z,21.40
2022-11-16T09:20:31.042Z,22.70
2022-11-16T09:23:02.290Z,24.13
2022-11-16T09:25:33.491Z,18.58
2022-11-16T09:28:04.659Z,18.88
2022-11-16T09:30:39.206Z,22.05
2022-11-16T09:33:10.804Z,19.75
2022-11-16T09:35:42.280Z,19.60
2022-11-16T09:38:17.648Z,18.02
2022-11-16T09:40:53.272Z,19.58
2022-11-16T09:43:45.838Z,24.90
2022-11-16T09:46:26.584Z,22.92
2022-11-16T09:48:59.637Z,20.52
2022-11-16T09:51:35.844Z,18.05
2022-11-16T09:54:09.451Z,23.25
2022-11-16T09:56:44.416Z,22.77
2022-11-16T09:59:25.862Z,22.05
2022-11-16T10:02:05.117Z,24.45
2022-11-16T10:04:47.430Z,23.13
2022-11-16T10:07:21.401Z,29.27
2022-11-16T10:09:53.491Z,24.83
2022-11-16T10:12:29.336Z,24.65
2022-11-16T10:15:19.312Z,22.40
2022-11-16T10:18:08.054Z,32.80
2022-11-16T10:20:56.121Z,22.67
2022-11-16T10:23:41.479Z,32.67
2022-11-16T10:26:20.371Z,26.05
2022-11-16T10:29:03.090Z,33.03
2022-11-16T10:31:52.296Z,24.52
2022-11-16T10:34:28.319Z,27.23
2022-11-16T10:37:04.458Z,21.63
2022-11-16T10:39:41.250Z,31.27
2022-11-16T10:44:50.119Z,25.70
2022-11-16T10:47:30.873Z,21.48
2022-11-16T10:50:17.732Z,25.23
2022-11-16T10:52:48.849Z,26.02
2022-11-16T10:55:21.330Z,19.73
2022-11-16T10:58:01.050Z,28.20
2022-11-16T11:00:49.283Z,28.58
2022-11-16T11:03:34.196Z,26.17
2022-11-16T11:06:08.831Z,21.75
2022-11-16T11:08:40.139Z,32.10
2022-11-16T11:11:46.547Z,23.40
2022-11-16T11:14:19.369Z,20.83
2022-11-16T11:16:55.428Z,16.65
2022-11-16T11:19:31.055Z,17.92
2022-11-16T11:22:05.098Z,28.95
2022-11-16T11:24:44.442Z,22.70
2022-11-16T11:27:16.649Z,22.58
2022-11-16T11:29:54.592Z,20.05
2022-11-16T11:32:28.415Z,22.83
2022-11-16T11:35:01.281Z,24.92
2022-11-16T11:37:38.112Z,13.32
2022-11-16T11:40:25.583Z,13.57
2022-11-16T11:45:39.936Z,14.95
2022-11-16T11:48:30.344Z,20.10
2022-11-16T11:51:06.084Z,17.55
2022-11-16T11:53:50.656Z,17.77
2022-11-16T11:56:22.746Z,13.02
2022-11-16T11:58:54.405Z,15.43
2022-11-16T12:01:58.066Z,14.38
2022-11-16T12:05:01.291Z,20.88
2022-11-16T12:07:47.120Z,14.55
2022-11-16T12:10:30.493Z,15.88
2022-11-16T12:13:15.967Z,18.23
2022-11-16T12:16:02.384Z,16.90
2022-11-16T12:18:49.706Z,12.93
2022-11-16T12:21:27.935Z,18.98
2022-11-16T12:24:22.457Z,15.07
2022-11-16T12:27:05.948Z,11.25
2022-11-16T12:29:45.279Z,17.58
2022-11-16T12:32:46.694Z,15.88
2022-11-16T12:35:32.447Z,19.77
2022-11-16T12:38:10.267Z,20.48
2022-11-16T12:40:51.896Z,18.98
2022-11-16T12:43:36.889Z,14.68
2022-11-16T12:46:18.798Z,24.35
2022-11-16T12:49:18.743Z,15.27
2022-11-16T12:52:00.913Z,14.32
2022-11-16T12:55:19.014Z,16.40
2022-11-16T12:57:48.507Z,17.45
2022-11-16T13:00:23.318Z,13.05
2022-11-16T13:03:07.564Z,18.10
2022-11-16T13:05:50.378Z,12.25
2022-11-16T13:08:33.044Z,15.27
2022-11-16T13:11:10.232Z,13.82
2022-11-16T13:13:49.745Z,18.45
2022-11-16T13:16:26.102Z,16.60
2022-11-16T13:18:58.766Z,10.70
2022-11-16T13:21:43.827Z,14.80
2022-11-16T13:24:33.768Z,18.45
2022-11-16T13:27:17.299Z,10.98
2022-11-16T13:29:54.291Z,11.68
2022-11-16T13:32:39.826Z,21.35
2022-11-16T13:35:18.409Z,15.98
2022-11-16T13:37:51.131Z,13.98
2022-11-16T13:40:31.427Z,14.25
2022-11-16T13:43:08.898Z,13.23
2022-11-16T13:45:45.935Z,11.85
2022-11-16T13:50:58.294Z,14.90
2022-11-16T13:56:28.970Z,12.43
2022-11-16T13:59:02.020Z,19.17
2022-11-16T14:02:00.749Z,20.58
2022-11-16T14:04:58.119Z,12.70
2022-11-16T14:07:34.999Z,9.20
2022-11-16T14:10:08.605Z,17.73
2022-11-16T14:13:07.613Z,14.20
2022-11-16T14:15:40.268Z,11.95
2022-11-16T14:18:40.151Z,11.63
2022-11-16T14:21:38.701Z,11.85
2022-11-16T14:24:22.394Z,6.22
2022-11-16T14:27:07.139Z,8.07
2022-11-16T14:29:54.421Z,7.70
2022-11-16T14:32:30.101Z,7.35
2022-11-16T14:35:03.928Z,8.73
2022-11-16T14:37:42.720Z,6.65
2022-11-16T14:40:20.551Z,8.02
2022-11-16T14:45:51.658Z,5.65
2022-11-16T14:48:26.221Z,6.57
2022-11-16T14:51:11.444Z,5.70
2022-11-16T14:53:50.614Z,3.03
2022-11-16T14:56:22.808Z,2.80
2022-11-16T14:58:59.281Z,4.75
2022-11-16T15:01:32.824Z,5.60
2022-11-16T15:04:07.337Z,7.60
2022-11-16T15:06:44.132Z,3.67
2022-11-16T15:09:23.258Z,5.10
2022-11-16T15:12:07.686Z,4.07
2022-11-16T15:14:44.920Z,2.53
2022-11-16T15:17:20.890Z,1.42
2022-11-16T15:19:59.934Z,2.88
2022-11-16T15:22:33.191Z,1.60
2022-11-16T15:25:08.156Z,1.75
2022-11-16T15:27:41.780Z,1.55
2022-11-16T15:30:22.136Z,2.08
2022-11-16T15:32:55.259Z,1.95
2022-11-16T15:35:28.235Z,1.15
2022-11-16T15:38:07.308Z,1.83
2022-11-16T15:40:41.773Z,2.75
2022-11-16T15:43:14.783Z,2.10
2022-11-16T15:45:46.390Z,2.00
2022-11-16T15:48:22.146Z,0.88
2022-11-16T15:51:08.479Z,2.03
2022-11-16T15:53:43.899Z,2.40
2022-11-16T15:56:21.034Z,1.30
2022-11-16T16:01:25.085Z,2.45
2022-11-16T16:04:01.370Z,2.42
2022-11-16T16:06:48.725Z,1.42
2022-11-16T16:12:20.533Z,1.52
2022-11-16T16:14:53.387Z,4.18
2022-11-16T16:17:29.397Z,3.40
2022-11-16T16:20:01.796Z,1.93
2022-11-16T16:22:35.775Z,2.65
2022-11-16T16:25:08.462Z,5.13
2022-11-16T16:27:43.819Z,3.75
2022-11-16T16:30:17.558Z,3.05
2022-11-16T16:32:53.115Z,2.30
2022-11-16T16:35:25.752Z,2.55
2022-11-16T16:38:01.505Z,3.78
2022-11-16T16:40:32.830Z,4.57
2022-11-16T16:43:06.734Z,5.38
2022-11-16T16:45:41.575Z,6.35
2022-11-16T16:48:13.911Z,5.15
2022-11-16T16:50:45.159Z,3.17
2022-11-16T16:53:17.010Z,5.15
2022-11-16T16:55:49.659Z,3.17
2022-11-16T16:58:23.406Z,3.90
2022-11-16T17:01:00.900Z,4.10
2022-11-16T17:03:34.554Z,6.07
2022-11-16T17:06:06.801Z,2.95
2022-11-16T17:08:39.239Z,5.32
2022-11-16T17:11:12.766Z,3.78
2022-11-16T17:13:46.507Z,11.30
2022-11-16T17:16:17.485Z,7.38
2022-11-16T17:18:48.217Z,7.43
2022-11-16T17:21:19.473Z,7.32
2022-11-16T17:23:50.354Z,8.40
2022-11-16T17:26:22.128Z,2.90
2022-11-16T17:28:58.915Z,4.28
2022-11-16T17:31:31.886Z,5.60
2022-11-16T17:34:10.753Z,4.20
2022-11-16T17:36:44.098Z,6.45
2022-11-16T17:39:16.288Z,4.63
2022-11-16T17:41:47.788Z,4.70
2022-11-16T17:44:24.304Z,6.95
2022-11-16T17:46:55.269Z,14.73
2022-11-16T17:49:29.355Z,11.98
2022-11-16T17:52:01.894Z,18.67
2022-11-16T17:54:32.712Z,17.98
2022-11-16T17:57:05.043Z,22.30
2022-11-16T17:59:38.475Z,33.10
2022-11-16T18:02:09.522Z,30.20
2022-11-16T18:04:40.574Z,29.05
2022-11-16T18:07:11.738Z,29.08
2022-11-16T18:09:42.849Z,27.13
2022-11-16T18:12:13.772Z,40.33
2022-11-16T18:15:13.460Z,36.35
2022-11-16T18:17:38.632Z,40.45
2022-11-16T18:20:11.079Z,36.13
2022-11-16T18:22:42.173Z,29.50
2022-11-16T18:25:13.486Z,42.42
2022-11-16T18:27:44.864Z,41.58
2022-11-16T18:30:21.320Z,37.55
2022-11-16T18:32:52.594Z,32.53
2022-11-16T18:35:23.737Z,39.22
2022-11-16T18:37:54.956Z,36.65
2022-11-16T18:40:25.970Z,31.38
2022-11-16T18:42:57.420Z,38.33
2022-11-16T18:45:31.246Z,38.17
2022-11-16T18:48:02.386Z,38.50
2022-11-16T18:50:33.919Z,47.88
2022-11-16T18:53:05.105Z,46.70
2022-11-16T18:55:36.484Z,37.63
2022-11-16T18:58:22.931Z,45.38
2022-11-16T19:01:05.890Z,50.15
2022-11-16T19:03:37.754Z,36.15
2022-11-16T19:06:10.657Z,37.03
2022-11-16T19:08:43.818Z,39.65
2022-11-16T19:11:16.997Z,40.10
2022-11-16T19:13:48.355Z,45.92
2022-11-16T19:16:22.150Z,37.08
2022-11-16T19:18:54.497Z,40.35
2022-11-16T19:21:26.207Z,34.20
2022-11-16T19:23:59.347Z,35.95
2022-11-16T19:26:31.222Z,28.75
2022-11-16T19:29:04.440Z,40.22
2022-11-16T19:31:37.872Z,30.05
2022-11-16T19:34:14.865Z,28.83
2022-11-16T19:36:45.676Z,34.58
2022-11-16T19:39:16.830Z,26.77
2022-11-16T19:41:48.210Z,29.92
2022-11-16T19:44:20.362Z,30.15
2022-11-16T19:46:54.734Z,30.08
2022-11-16T19:49:26.541Z,32.83
2022-11-16T19:51:59.613Z,35.15
2022-11-16T19:54:31.000Z,31.30
2022-11-16T19:57:02.137Z,36.92
2022-11-16T19:59:33.742Z,33.63
2022-11-16T20:02:08.502Z,32.05
2022-11-16T20:04:41.113Z,31.70
2022-11-16T20:07:13.870Z,26.73
2022-11-16T20:09:49.282Z,39.95
2022-11-16T20:12:23.064Z,25.13
2022-11-16T20:14:53.801Z,30.02
2022-11-16T20:17:27.643Z,33.17
2022-11-16T20:19:58.860Z,30.05
2022-11-16T20:22:30.181Z,27.50
2022-11-16T20:25:01.672Z,22.10
2022-11-16T20:27:32.679Z,26.58
2022-11-16T20:30:09.065Z,30.42
2022-11-16T20:32:44.079Z,27.55
2022-11-16T20:35:18.945Z,26.10
2022-11-16T20:37:50.251Z,24.48
2022-11-16T20:40:21.659Z,26.73
2022-11-16T20:42:53.107Z,26.42
2022-11-16T20:45:24.644Z,31.42
2022-11-16T20:47:58.455Z,33.10
2022-11-16T20:50:29.702Z,30.98
2022-11-16T20:53:00.537Z,33.05
2022-11-16T20:55:31.828Z,26.98
2022-11-16T20:58:02.866Z,28.02
2022-11-16T21:00:33.677Z,34.63
2022-11-16T21:03:07.679Z,29.60
2022-11-16T21:05:43.418Z,36.30
2022-11-16T21:08:15.415Z,28.25
2022-11-16T21:10:48.562Z,29.48
2022-11-16T21:13:33.687Z,37.28
2022-11-16T21:16:07.250Z,25.55
2022-11-16T21:18:41.358Z,25.48
2022-11-16T21:21:15.056Z,19.45
2022-11-16T21:23:51.957Z,23.38
2022-11-16T21:28:55.391Z,19.83
2022-11-16T21:31:29.987Z,21.63
2022-11-16T21:34:05.976Z,17.73
2022-11-16T21:36:37.082Z,19.93
2022-11-16T21:39:08.323Z,19.33
2022-11-16T21:41:39.223Z,13.23
2022-11-16T21:44:09.938Z,20.05
2022-11-16T21:46:40.793Z,20.50
2022-11-16T21:49:14.319Z,16.58
2022-11-16T21:51:45.075Z,64.82
2022-11-16T21:54:16.025Z,14.90
2022-11-16T21:56:47.101Z,15.80
2022-11-16T21:59:18.490Z,20.27
2022-11-16T22:02:04.563Z,9.65
2022-11-16T22:04:50.315Z,16.77
2022-11-16T22:07:37.145Z,9.45
2022-11-16T22:10:10.422Z,12.40
2022-11-16T22:12:41.860Z,13.30
2022-11-16T22:15:14.239Z,17.45
2022-11-16T22:17:46.795Z,18.95
2022-11-16T22:20:21.111Z,14.68
2022-11-16T22:22:51.965Z,14.43
2022-11-16T22:25:23.017Z,14.40
2022-11-16T22:30:51.216Z,9.45
2022-11-16T22:33:24.288Z,15.50
2022-11-16T22:35:57.646Z,9.55
2022-11-16T22:38:28.507Z,11.18
2022-11-16T22:41:00.169Z,19.83
2022-11-16T22:43:32.843Z,11.60
2022-11-16T22:46:05.510Z,7.22
2022-11-16T22:48:37.565Z,13.18
2022-11-16T22:51:20.207Z,8.07
2022-11-16T22:53:51.280Z,9.93
2022-11-16T22:56:21.982Z,10.07
2022-11-16T22:58:53.218Z,6.45
2022-11-16T23:01:24.242Z,4.90
2022-11-16T23:03:55.080Z,7.57
2022-11-16T23:06:28.477Z,5.80
2022-11-16T23:08:59.332Z,6.43
2022-11-16T23:11:42.500Z,7.18
2022-11-16T23:14:27.955Z,8.93
2022-11-16T23:16:58.903Z,6.13
2022-11-16T23:19:42.261Z,6.57
2022-11-16T23:22:32.708Z,13.30
2022-11-16T23:25:16.785Z,9.40
2022-11-16T23:27:56.164Z,9.07
2022-11-16T23:30:28.336Z,9.60
2022-11-16T23:32:59.275Z,9.18
2022-11-16T23:35:30.081Z,9.25
2022-11-16T23:38:05.223Z,6.50
2022-11-16T23:40:37.403Z,12.07
2022-11-16T23:43:21.034Z,5.40
2022-11-16T23:45:52.560Z,8.25
2022-11-16T23:48:23.777Z,5.53
2022-11-16T23:50:54.547Z,6.43
2022-11-16T23:53:27.929Z,6.35
2022-11-16T23:56:06.220Z,6.05
2022-11-16T23:58:37.285Z,5.35
